createdAt,value
2023-01-15T00:00:22.385Z,7.50
2023-01-15T00:02:59.449Z,7.50
2023-01-15T00:05:28.345Z,7.50
2023-01-15T00:08:03.273Z,7.50
2023-01-15T00:10:38.692Z,7.50
2023-01-15T00:13:13.273Z,7.50
2023-01-15T00:15:44.035Z,7.50
2023-01-15T00:18:22.256Z,7.50
2023-01-15T00:20:50.993Z,7.40
2023-01-15T00:23:39.283Z,7.40
2023-01-15T00:26:24.949Z,7.40
2023-01-15T00:29:00.308Z,7.50
2023-01-15T00:31:29.902Z,7.50
2023-01-15T00:34:06.434Z,7.50
2023-01-15T00:36:35.342Z,7.50
2023-01-15T00:39:10.345Z,7.50
2023-01-15T00:41:39.288Z,7.50
2023-01-15T00:44:14.347Z,7.50
2023-01-15T00:46:45.313Z,7.50
2023-01-15T00:49:23.447Z,7.50
2023-01-15T00:51:52.669Z,7.50
2023-01-15T00:54:28.257Z,7.50
2023-01-15T00:56:56.796Z,7.50
2023-01-15T00:59:32.440Z,7.50
2023-01-15T01:02:01.561Z,7.50
2023-01-15T01:04:38.612Z,7.50
2023-01-15T01:07:07.608Z,7.50
2023-01-15T01:09:43.336Z,7.50
2023-01-15T01:12:18.849Z,7.50
2023-01-15T01:14:54.467Z,7.50
2023-01-15T01:17:22.928Z,7.50
2023-01-15T01:19:59.456Z,7.50
2023-01-15T01:22:28.050Z,7.50
2023-01-15T01:25:03.343Z,7.50
2023-01-15T01:27:32.362Z,7.50
2023-01-15T01:30:07.726Z,7.50
2023-01-15T01:32:36.431Z,7.50
2023-01-15T01:35:13.499Z,7.50
2023-01-15T01:37:42.879Z,7.50
2023-01-15T01:40:19.313Z,7.50
2023-01-15T01:42:49.733Z,7.50
2023-01-15T01:45:32.375Z,7.50
2023-01-15T01:48:06.845Z,7.60
2023-01-15T01:50:45.374Z,7.50
2023-01-15T01:53:20.420Z,7.50
2023-01-15T01:55:58.384Z,7.60
2023-01-15T01:58:30.931Z,7.60
2023-01-15T02:01:08.436Z,7.60
2023-01-15T02:03:57.386Z,7.60
2023-01-15T02:06:36.515Z,7.60
2023-01-15T02:09:06.237Z,7.60
2023-01-15T02:11:42.289Z,7.60
2023-01-15T02:14:17.069Z,7.50
2023-01-15T02:16:57.402Z,7.50
2023-01-15T02:19:41.982Z,7.50
2023-01-15T02:22:33.363Z,7.50
2023-01-15T02:25:10.001Z,7.50
2023-01-15T02:27:51.402Z,7.50
2023-01-15T02:30:26.434Z,7.50
2023-01-15T02:33:07.531Z,7.50
2023-01-15T02:35:41.657Z,7.50
2023-01-15T02:38:19.501Z,7.50
2023-01-15T02:40:50.242Z,7.50
2023-01-15T02:43:29.349Z,7.50
2023-01-15T02:46:01.985Z,7.50
2023-01-15T02:48:39.520Z,7.40
2023-01-15T02:51:11.914Z,7.40
2023-01-15T02:53:49.369Z,7.40
2023-01-15T02:56:20.586Z,7.40
2023-01-15T02:59:00.435Z,7.40
2023-01-15T03:01:34.210Z,7.40
2023-01-15T03:04:16.553Z,7.30
2023-01-15T03:07:03.423Z,7.30
2023-01-15T03:09:32.681Z,7.30
2023-01-15T03:12:14.550Z,7.30
2023-01-15T03:14:51.508Z,7.30
2023-01-15T03:17:46.566Z,7.20
2023-01-15T03:20:25.664Z,7.20
2023-01-15T03:23:07.540Z,7.20
2023-01-15T03:25:49.462Z,7.20
2023-01-15T03:28:23.825Z,7.20
2023-01-15T03:31:00.577Z,7.20
2023-01-15T03:33:30.989Z,7.20
2023-01-15T03:36:07.473Z,7.20
2023-01-15T03:38:38.339Z,7.20
2023-01-15T03:41:23.814Z,7.20
2023-01-15T03:44:03.735Z,7.10
2023-01-15T03:46:54.603Z,7.20
2023-01-15T03:49:33.119Z,7.20
2023-01-15T03:52:13.500Z,7.10
2023-01-15T03:54:50.569Z,7.10
2023-01-15T03:57:36.779Z,7.10
2023-01-15T04:00:11.883Z,7.10
2023-01-15T04:02:49.409Z,7.00
2023-01-15T04:05:25.055Z,7.00
2023-01-15T04:08:02.685Z,7.10
2023-01-15T04:10:31.455Z,7.10
2023-01-15T04:13:06.491Z,7.00
2023-01-15T04:15:35.161Z,7.10
2023-01-15T04:18:11.440Z,7.10
2023-01-15T04:20:40.357Z,7.00
2023-01-15T04:23:17.626Z,7.00
2023-01-15T04:25:46.463Z,7.00
2023-01-15T04:28:21.471Z,7.00
2023-01-15T04:30:50.376Z,7.00
2023-01-15T04:33:27.636Z,7.00
2023-01-15T04:35:56.272Z,7.00
2023-01-15T04:38:31.620Z,7.00
2023-01-15T04:41:20.571Z,7.00
2023-01-15T04:44:12.502Z,6.90
2023-01-15T04:46:42.344Z,6.90
2023-01-15T04:49:20.645Z,6.90
2023-01-15T04:51:49.307Z,6.80
2023-01-15T04:54:25.720Z,6.80
2023-01-15T04:56:55.782Z,6.80
2023-01-15T04:59:33.632Z,6.80
2023-01-15T05:02:05.299Z,6.80
2023-01-15T05:04:43.549Z,6.80
2023-01-15T05:07:18.848Z,6.80
2023-01-15T05:09:58.516Z,6.80
2023-01-15T05:12:27.371Z,6.80
2023-01-15T05:15:02.645Z,6.80
2023-01-15T05:17:36.133Z,6.80
2023-01-15T05:20:13.585Z,6.70
2023-01-15T05:22:42.319Z,6.70
2023-01-15T05:25:17.506Z,6.70
2023-01-15T05:27:46.122Z,6.70
2023-01-15T05:30:21.490Z,6.70
2023-01-15T05:32:49.955Z,6.70
2023-01-15T05:35:26.689Z,6.70
2023-01-15T05:37:55.253Z,6.70
2023-01-15T05:40:30.565Z,6.70
2023-01-15T05:43:00.740Z,6.70
2023-01-15T05:45:35.693Z,6.70
2023-01-15T05:48:04.201Z,6.70
2023-01-15T05:50:41.505Z,6.70
2023-01-15T05:53:16.531Z,6.70
2023-01-15T05:55:44.939Z,6.70
2023-01-15T05:58:19.573Z,6.70
2023-01-15T06:00:48.226Z,6.60
2023-01-15T06:03:24.551Z,6.60
2023-01-15T06:06:01.324Z,6.60
2023-01-15T06:08:36.725Z,6.60
2023-01-15T06:11:07.370Z,6.50
2023-01-15T06:13:42.555Z,6.50
2023-01-15T06:16:12.251Z,6.50
2023-01-15T06:18:48.545Z,6.50
2023-01-15T06:21:19.724Z,6.50
2023-01-15T06:23:54.731Z,6.50
2023-01-15T06:26:23.735Z,6.50
2023-01-15T06:28:58.633Z,6.40
2023-01-15T06:31:28.434Z,6.40
2023-01-15T06:34:04.752Z,6.40
2023-01-15T06:36:34.513Z,6.30
2023-01-15T06:39:09.547Z,6.20
2023-01-15T06:41:55.192Z,6.20
2023-01-15T06:44:47.625Z,6.10
2023-01-15T06:47:24.952Z,6.00
2023-01-15T06:50:02.602Z,5.90
2023-01-15T06:52:32.750Z,5.90
2023-01-15T06:55:07.629Z,5.80
2023-01-15T06:57:36.163Z,5.70
2023-01-15T07:00:11.714Z,5.60
2023-01-15T07:02:41.707Z,5.60
2023-01-15T07:05:23.749Z,5.50
2023-01-15T07:07:53.889Z,5.50
2023-01-15T07:10:28.813Z,5.40
2023-01-15T07:12:57.470Z,5.40
2023-01-15T07:15:32.919Z,5.40
2023-01-15T07:18:01.609Z,5.40
2023-01-15T07:20:36.620Z,5.40
2023-01-15T07:23:06.690Z,5.30
2023-01-15T07:25:41.710Z,5.30
2023-01-15T07:28:10.386Z,5.30
2023-01-15T07:30:47.085Z,5.30
2023-01-15T07:33:15.410Z,5.30
2023-01-15T07:35:51.669Z,5.30
2023-01-15T07:38:21.825Z,5.30
2023-01-15T07:41:17.618Z,5.30
2023-01-15T07:43:59.781Z,5.20
2023-01-15T07:46:51.826Z,5.20
2023-01-15T07:49:37.708Z,5.20
2023-01-15T07:52:12.654Z,5.30
2023-01-15T07:54:42.681Z,5.30
2023-01-15T07:57:18.898Z,5.30
2023-01-15T07:59:47.591Z,5.30
2023-01-15T08:02:22.800Z,5.30
2023-01-15T08:04:58.212Z,5.30
2023-01-15T08:07:44.784Z,5.30
2023-01-15T08:10:15.930Z,5.30
2023-01-15T08:13:07.666Z,5.40
2023-01-15T08:15:44.281Z,5.40
2023-01-15T08:18:19.838Z,5.40
2023-01-15T08:20:48.534Z,5.40
2023-01-15T08:23:24.831Z,5.40
2023-01-15T08:25:54.732Z,5.30
2023-01-15T08:28:29.821Z,5.30
2023-01-15T08:30:58.723Z,5.30
2023-01-15T08:33:33.845Z,5.40
2023-01-15T08:36:02.535Z,5.40
2023-01-15T08:38:37.664Z,5.40
2023-01-15T08:41:08.872Z,5.40
2023-01-15T08:43:43.688Z,5.40
2023-01-15T08:46:12.347Z,5.50
2023-01-15T08:48:47.703Z,5.50
2023-01-15T08:51:17.057Z,5.50
2023-01-15T08:53:51.734Z,5.50
2023-01-15T08:56:22.433Z,5.50
2023-01-15T08:58:58.759Z,5.60
2023-01-15T09:01:27.384Z,5.60
2023-01-15T09:04:03.752Z,5.60
2023-01-15T09:06:39.361Z,5.60
2023-01-15T09:09:21.711Z,5.70
2023-01-15T09:11:58.797Z,5.70
2023-01-15T09:14:57.388Z,5.80
2023-01-15T09:17:22.894Z,5.80
2023-01-15T09:19:51.538Z,5.80
2023-01-15T09:22:26.724Z,5.80
2023-01-15T09:24:55.178Z,5.90
2023-01-15T09:27:31.725Z,5.90
2023-01-15T09:30:00.244Z,5.90
2023-01-15T09:32:35.746Z,5.90
2023-01-15T09:35:04.254Z,6.00
2023-01-15T09:37:39.871Z,6.00
2023-01-15T09:40:14.212Z,6.10
2023-01-15T09:43:02.793Z,6.10
2023-01-15T09:45:39.159Z,6.20
2023-01-15T09:48:31.907Z,6.20
2023-01-15T09:51:14.033Z,6.20
2023-01-15T09:54:04.907Z,6.30
2023-01-15T09:56:36.353Z,6.30
2023-01-15T09:59:22.953Z,6.50
2023-01-15T10:01:53.153Z,6.50
2023-01-15T10:04:42.797Z,6.50
2023-01-15T10:07:26.180Z,6.50
2023-01-15T10:10:06.802Z,6.40
2023-01-15T10:12:40.972Z,6.50
2023-01-15T10:15:32.786Z,6.50
2023-01-15T10:18:02.257Z,6.40
2023-01-15T10:21:18.965Z,6.60
2023-01-15T10:23:58.678Z,6.60
2023-01-15T10:26:40.818Z,6.50
2023-01-15T10:29:18.864Z,6.50
2023-01-15T10:32:03.954Z,6.40
2023-01-15T10:34:58.799Z,6.40
2023-01-15T10:37:39.753Z,6.30
2023-01-15T10:40:26.346Z,6.40
2023-01-15T10:43:08.944Z,6.40
2023-01-15T10:45:42.242Z,6.40
2023-01-15T10:48:27.825Z,6.40
2023-01-15T10:50:57.175Z,6.30
2023-01-15T10:53:40.858Z,6.20
2023-01-15T10:56:15.481Z,6.20
2023-01-15T10:58:54.805Z,6.10
2023-01-15T11:01:28.473Z,6.10
2023-01-15T11:04:04.851Z,6.20
2023-01-15T11:06:47.727Z,6.30
2023-01-15T11:09:29.975Z,6.50
2023-01-15T11:12:33.311Z,6.60
2023-01-15T11:15:26.140Z,6.70
2023-01-15T11:18:14.293Z,6.90
2023-01-15T11:20:56.012Z,7.00
2023-01-15T11:23:24.590Z,7.10
2023-01-15T11:26:01.895Z,7.10
2023-01-15T11:28:41.076Z,7.00
2023-01-15T11:31:17.029Z,7.00
2023-01-15T11:33:47.253Z,7.00
2023-01-15T11:36:31.985Z,6.90
2023-01-15T11:39:01.804Z,7.00
2023-01-15T11:41:53.061Z,7.20
2023-01-15T11:44:46.818Z,7.20
2023-01-15T11:47:36.390Z,7.20
2023-01-15T11:50:37.871Z,7.30
2023-01-15T11:53:11.572Z,7.50
2023-01-15T11:55:46.895Z,7.40
2023-01-15T11:58:15.580Z,7.40
2023-01-15T12:00:53.900Z,7.30
2023-01-15T12:03:25.817Z,7.20
2023-01-15T12:06:12.064Z,7.20
2023-01-15T12:08:51.702Z,7.30
2023-01-15T12:11:53.327Z,7.30
2023-01-15T12:14:40.691Z,7.30
2023-01-15T12:17:37.374Z,7.30
2023-01-15T12:20:17.896Z,7.30
2023-01-15T12:23:03.920Z,7.30
2023-01-15T12:25:42.247Z,7.30
2023-01-15T12:28:22.380Z,7.20
2023-01-15T12:31:00.168Z,7.20
2023-01-15T12:33:45.910Z,7.20
2023-01-15T12:36:18.382Z,7.20
2023-01-15T12:38:58.949Z,7.20
2023-01-15T12:41:46.815Z,7.20
2023-01-15T12:44:53.911Z,7.20
2023-01-15T12:47:27.409Z,7.20
2023-01-15T12:50:05.964Z,7.30
2023-01-15T12:52:40.689Z,7.20
2023-01-15T12:55:23.876Z,7.30
2023-01-15T12:58:00.074Z,7.30
2023-01-15T13:00:39.123Z,7.30
2023-01-15T13:03:18.469Z,7.30
2023-01-15T13:05:57.133Z,7.20
2023-01-15T13:08:38.546Z,7.20
2023-01-15T13:11:13.987Z,7.20
2023-01-15T13:13:58.146Z,7.20
2023-01-15T13:16:43.951Z,7.10
2023-01-15T13:19:38.708Z,7.20
2023-01-15T13:22:19.008Z,7.20
2023-01-15T13:25:14.082Z,7.20
2023-01-15T13:28:02.231Z,7.30
2023-01-15T13:30:58.973Z,7.30
2023-01-15T13:33:32.004Z,7.30
2023-01-15T13:36:16.990Z,7.30
2023-01-15T13:38:48.536Z,7.30
2023-01-15T13:41:47.984Z,7.40
2023-01-15T13:44:22.082Z,7.40
2023-01-15T13:47:10.114Z,7.40
2023-01-15T13:49:42.466Z,7.40
2023-01-15T13:52:33.913Z,7.30
2023-01-15T13:55:11.605Z,7.40
2023-01-15T13:57:49.086Z,7.30
2023-01-15T14:00:32.609Z,7.30
2023-01-15T14:03:11.015Z,7.30
2023-01-15T14:06:11.214Z,7.30
2023-01-15T14:08:42.771Z,7.20
2023-01-15T14:11:46.045Z,7.20
2023-01-15T14:14:59.177Z,7.20
2023-01-15T14:18:00.297Z,7.20
2023-01-15T14:20:58.169Z,7.10
2023-01-15T14:23:59.969Z,7.10
2023-01-15T14:26:42.289Z,7.00
2023-01-15T14:29:48.177Z,6.90
2023-01-15T14:32:25.963Z,6.90
2023-01-15T14:35:06.062Z,6.80
2023-01-15T14:37:48.394Z,6.80
2023-01-15T14:40:29.048Z,6.80
2023-01-15T14:43:05.009Z,6.70
2023-01-15T14:45:43.211Z,6.70
2023-01-15T14:48:21.023Z,6.70
2023-01-15T14:50:56.997Z,6.60
2023-01-15T14:53:34.423Z,6.60
2023-01-15T14:56:18.953Z,6.60
2023-01-15T14:59:12.926Z,6.50
2023-01-15T15:01:53.333Z,6.60
2023-01-15T15:04:29.668Z,6.60
2023-01-15T15:07:16.012Z,6.60
2023-01-15T15:09:52.184Z,6.60
2023-01-15T15:12:38.011Z,6.50
2023-01-15T15:15:13.059Z,6.50
2023-01-15T15:17:56.083Z,6.50
2023-01-15T15:20:37.155Z,6.60
2023-01-15T15:23:20.211Z,6.60
2023-01-15T15:25:58.058Z,6.60
2023-01-15T15:28:32.976Z,6.60
2023-01-15T15:31:02.894Z,6.60
2023-01-15T15:33:45.255Z,6.50
2023-01-15T15:36:14.308Z,6.50
2023-01-15T15:39:00.156Z,6.50
2023-01-15T15:41:51.359Z,6.50
2023-01-15T15:45:01.048Z,6.40
2023-01-15T15:47:47.282Z,6.40
2023-01-15T15:50:31.272Z,6.50
2023-01-15T15:53:04.661Z,6.50
2023-01-15T15:55:47.230Z,6.40
2023-01-15T15:58:24.598Z,6.40
2023-01-15T16:01:04.286Z,6.40
2023-01-15T16:03:34.714Z,6.40
2023-01-15T16:06:12.250Z,6.40
2023-01-15T16:08:47.563Z,6.40
2023-01-15T16:11:23.285Z,6.40
2023-01-15T16:13:56.391Z,6.40
2023-01-15T16:16:36.048Z,6.40
2023-01-15T16:19:05.156Z,6.40
2023-01-15T16:21:43.063Z,6.40
2023-01-15T16:24:25.205Z,6.40
2023-01-15T16:27:07.360Z,6.40
2023-01-15T16:29:38.016Z,6.40
2023-01-15T16:32:20.407Z,6.40
2023-01-15T16:34:49.421Z,6.40
2023-01-15T16:37:33.495Z,6.40
2023-01-15T16:40:04.380Z,6.40
2023-01-15T16:42:44.143Z,6.40
2023-01-15T16:45:25.194Z,6.30
2023-01-15T16:48:17.180Z,6.20
2023-01-15T16:50:45.777Z,6.20
2023-01-15T16:53:45.311Z,6.10
2023-01-15T16:56:28.925Z,6.00
2023-01-15T16:59:04.109Z,6.00
2023-01-15T17:01:42.128Z,5.90
2023-01-15T17:04:27.325Z,5.90
2023-01-15T17:07:18.193Z,5.80
2023-01-15T17:09:57.362Z,5.80
2023-01-15T17:12:29.319Z,5.80
2023-01-15T17:15:37.322Z,5.80
2023-01-15T17:18:36.189Z,5.80
2023-01-15T17:21:06.456Z,5.80
2023-01-15T17:23:44.181Z,5.80
2023-01-15T17:26:18.636Z,5.80
2023-01-15T17:28:54.221Z,5.80
2023-01-15T17:31:28.468Z,5.70
2023-01-15T17:34:06.324Z,5.80
2023-01-15T17:36:35.366Z,5.80
2023-01-15T17:39:10.185Z,5.80
2023-01-15T17:41:38.842Z,5.80
2023-01-15T17:44:14.397Z,5.80
2023-01-15T17:46:43.306Z,5.80
2023-01-15T17:49:20.132Z,5.80
2023-01-15T17:51:48.831Z,5.80
2023-01-15T17:54:44.163Z,5.80
2023-01-15T17:57:30.097Z,5.80
2023-01-15T18:00:22.347Z,5.80
2023-01-15T18:03:07.830Z,5.80
2023-01-15T18:05:44.232Z,5.80
2023-01-15T18:08:19.638Z,5.80
2023-01-15T18:10:54.183Z,5.60
2023-01-15T18:13:22.765Z,5.50
2023-01-15T18:15:59.478Z,5.40
2023-01-15T18:18:27.765Z,5.40
2023-01-15T18:21:04.236Z,5.40
2023-01-15T18:23:35.196Z,5.40
2023-01-15T18:26:12.216Z,5.40
2023-01-15T18:28:41.195Z,5.50
2023-01-15T18:31:18.434Z,5.50
2023-01-15T18:33:47.165Z,5.50
2023-01-15T18:36:24.218Z,5.50
2023-01-15T18:38:53.721Z,5.60
2023-01-15T18:42:05.380Z,5.60
2023-01-15T18:44:51.208Z,5.60
2023-01-15T18:47:26.426Z,5.60
2023-01-15T18:49:56.263Z,5.70
2023-01-15T18:52:50.233Z,5.80
2023-01-15T18:55:19.356Z,5.80
2023-01-15T18:57:54.428Z,5.80
2023-01-15T19:00:24.634Z,5.80
2023-01-15T19:03:00.220Z,5.80
2023-01-15T19:05:39.398Z,5.80
2023-01-15T19:08:29.255Z,5.90
2023-01-15T19:10:57.771Z,5.90
2023-01-15T19:13:33.306Z,5.90
2023-01-15T19:16:18.897Z,5.90
2023-01-15T19:19:00.318Z,5.90
2023-01-15T19:21:28.924Z,5.90
2023-01-15T19:24:05.223Z,5.90
2023-01-15T19:26:35.290Z,5.90
2023-01-15T19:29:13.345Z,5.80
2023-01-15T19:31:41.988Z,5.70
2023-01-15T19:34:33.206Z,5.70
2023-01-15T19:37:02.450Z,5.70
2023-01-15T19:39:39.385Z,5.70
2023-01-15T19:42:25.123Z,5.70
2023-01-15T19:45:17.420Z,5.70
2023-01-15T19:48:10.262Z,5.70
2023-01-15T19:50:41.742Z,5.70
2023-01-15T19:53:17.406Z,5.70
2023-01-15T19:55:47.747Z,5.60
2023-01-15T19:58:16.936Z,5.60
2023-01-15T20:00:55.473Z,5.60
2023-01-15T20:03:23.858Z,5.60
2023-01-15T20:05:59.757Z,5.60
2023-01-15T20:08:48.440Z,5.60
2023-01-15T20:11:18.796Z,5.60
2023-01-15T20:14:00.488Z,5.50
2023-01-15T20:16:29.905Z,5.50
2023-01-15T20:19:05.277Z,5.50
2023-01-15T20:21:33.917Z,5.60
2023-01-15T20:24:09.535Z,5.60
2023-01-15T20:26:39.484Z,5.60
2023-01-15T20:29:14.266Z,5.60
2023-01-15T20:31:43.075Z,5.60
2023-01-15T20:34:18.306Z,5.60
2023-01-15T20:36:47.109Z,5.60
2023-01-15T20:39:25.315Z,5.60
2023-01-15T20:42:12.403Z,5.60
2023-01-15T20:45:02.594Z,5.60
2023-01-15T20:47:48.579Z,5.60
2023-01-15T20:50:25.353Z,5.60
2023-01-15T20:52:55.022Z,5.60
2023-01-15T20:55:34.041Z,5.60
2023-01-15T20:58:09.277Z,5.70
2023-01-15T21:00:44.355Z,5.70
2023-01-15T21:03:13.681Z,5.70
2023-01-15T21:05:48.669Z,5.50
2023-01-15T21:08:23.853Z,5.40
2023-01-15T21:11:00.315Z,5.30
2023-01-15T21:13:31.359Z,5.20
2023-01-15T21:16:09.436Z,5.30
2023-01-15T21:18:39.084Z,5.20
2023-01-15T21:21:18.499Z,5.30
2023-01-15T21:23:47.399Z,5.30
2023-01-15T21:26:23.502Z,5.20
2023-01-15T21:28:56.338Z,5.20
2023-01-15T21:31:31.395Z,5.20
2023-01-15T21:34:00.305Z,5.20
2023-01-15T21:36:35.366Z,5.10
2023-01-15T21:39:04.269Z,5.10
2023-01-15T21:41:56.509Z,5.10
2023-01-15T21:44:34.036Z,5.10
2023-01-15T21:47:11.407Z,5.10
2023-01-15T21:49:40.689Z,5.10
2023-01-15T21:52:19.561Z,5.10
2023-01-15T21:54:48.660Z,5.20
2023-01-15T21:57:25.430Z,5.20
2023-01-15T21:59:55.867Z,5.20
2023-01-15T22:02:32.363Z,5.30
2023-01-15T22:05:00.879Z,5.30
2023-01-15T22:07:35.563Z,5.30
2023-01-15T22:10:11.096Z,5.40
2023-01-15T22:12:48.421Z,5.40
2023-01-15T22:15:18.526Z,5.40
2023-01-15T22:17:58.445Z,5.40
2023-01-15T22:20:26.808Z,5.50
2023-01-15T22:23:01.364Z,5.50
2023-01-15T22:25:30.550Z,5.50
2023-01-15T22:28:08.552Z,5.60
2023-01-15T22:30:57.536Z,5.60
2023-01-15T22:33:26.383Z,5.60
2023-01-15T22:36:05.531Z,5.60
2023-01-15T22:38:35.343Z,5.60
2023-01-15T22:41:11.481Z,5.60
2023-01-15T22:43:39.945Z,5.60
2023-01-15T22:46:21.473Z,5.50
2023-01-15T22:48:50.089Z,5.50
2023-01-15T22:51:25.447Z,5.50
2023-01-15T22:53:55.379Z,5.50
2023-01-15T22:56:31.499Z,5.50
2023-01-15T22:59:00.057Z,5.50
2023-01-15T23:01:36.612Z,5.40
2023-01-15T23:04:05.352Z,5.40
2023-01-15T23:06:40.472Z,5.40
2023-01-15T23:09:15.581Z,5.40
2023-01-15T23:11:50.576Z,5.40
2023-01-15T23:14:20.116Z,5.30
2023-01-15T23:16:57.440Z,5.20
2023-01-15T23:19:28.280Z,5.20
2023-01-15T23:22:03.438Z,5.20
2023-01-15T23:24:31.954Z,5.10
2023-01-15T23:27:07.483Z,5.10
2023-01-15T23:29:36.225Z,5.10
2023-01-15T23:32:13.496Z,5.10
2023-01-15T23:34:42.457Z,5.10
2023-01-15T23:37:17.460Z,5.10
2023-01-15T23:39:46.452Z,5.10
2023-01-15T23:42:38.480Z,5.10
2023-01-15T23:45:25.119Z,5.10
2023-01-15T23:48:01.676Z,5.00
2023-01-15T23:50:30.325Z,5.00
2023-01-15T23:53:05.463Z,5.00
2023-01-15T23:55:34.006Z,5.00
2023-01-15T23:58:09.440Z,4.90
